sensor_id;sensor_type;location;lat;lon;timestamp;P1;durP1;ratioP1;P2;durP2;ratioP2
67816;SDS011;54614;47.576;7.524;2023-03-01T00:01:27;6.43;;;4.17;;
67816;SDS011;54614;47.576;7.524;2023-03-01T00:03:55;4.67;;;3.73;;
67816;SDS011;54614;47.576;7.524;2023-03-01T00:06:23;4.40;;;3.67;;
67816;SDS011;54614;47.576;7.524;2023-03-01T00:08:49;6.00;;;3.90;;
67816;SDS011;54614;47.576;7.524;2023-03-01T00:11:17;6.37;;;4.20;;
67816;SDS011;54614;47.576;7.524;2023-03-01T00:13:47;4.77;;;4.07;;
67816;SDS011;54614;47.576;7.524;2023-03-01T00:16:18;5.67;;;4.10;;
67816;SDS011;54614;47.576;7.524;2023-03-01T00:18:49;5.30;;;4.20;;
67816;SDS011;54614;47.576;7.524;2023-03-01T00:21:16;4.90;;;4.20;;
67816;SDS011;54614;47.576;7.524;2023-03-01T00:23:43;5.80;;;3.83;;
67816;SDS011;54614;47.576;7.524;2023-03-01T00:26:11;4.93;;;4.20;;
67816;SDS011;54614;47.576;7.524;2023-03-01T00:28:38;4.50;;;3.90;;
67816;SDS011;54614;47.576;7.524;2023-03-01T00:31:05;4.00;;;3.60;;
67816;SDS011;54614;47.576;7.524;2023-03-01T00:33:34;4.70;;;3.87;;
67816;SDS011;54614;47.576;7.524;2023-03-01T00:36:00;6.37;;;4.00;;
67816;SDS011;54614;47.576;7.524;2023-03-01T00:38:27;5.33;;;3.90;;
67816;SDS011;54614;47.576;7.524;2023-03-01T00:40:54;6.13;;;3.90;;
67816;SDS011;54614;47.576;7.524;2023-03-01T00:43:20;4.27;;;3.67;;
67816;SDS011;54614;47.576;7.524;2023-03-01T00:45:46;4.10;;;3.70;;
67816;SDS011;54614;47.576;7.524;2023-03-01T00:48:13;4.83;;;3.80;;
67816;SDS011;54614;47.576;7.524;2023-03-01T00:50:39;5.47;;;3.83;;
67816;SDS011;54614;47.576;7.524;2023-03-01T00:53:05;7.37;;;3.70;;
67816;SDS011;54614;47.576;7.524;2023-03-01T00:55:31;4.63;;;4.10;;
67816;SDS011;54614;47.576;7.524;2023-03-01T00:57:57;4.43;;;3.90;;
67816;SDS011;54614;47.576;7.524;2023-03-01T01:00:23;4.77;;;3.90;;
67816;SDS011;54614;47.576;7.524;2023-03-01T01:02:52;5.37;;;4.07;;
67816;SDS011;54614;47.576;7.524;2023-03-01T01:05:18;3.93;;;3.57;;
67816;SDS011;54614;47.576;7.524;2023-03-01T01:07:46;5.73;;;4.17;;
67816;SDS011;54614;47.576;7.524;2023-03-01T01:10:13;4.10;;;3.70;;
67816;SDS011;54614;47.576;7.524;2023-03-01T01:12:42;4.23;;;3.60;;
67816;SDS011;54614;47.576;7.524;2023-03-01T01:15:09;6.13;;;3.90;;
67816;SDS011;54614;47.576;7.524;2023-03-01T01:17:38;4.60;;;3.80;;
67816;SDS011;54614;47.576;7.524;2023-03-01T01:20:04;5.10;;;3.80;;
67816;SDS011;54614;47.576;7.524;2023-03-01T01:22:31;4.63;;;3.73;;
67816;SDS011;54614;47.576;7.524;2023-03-01T01:24:57;4.17;;;3.77;;
67816;SDS011;54614;47.576;7.524;2023-03-01T01:27:23;5.43;;;3.90;;
67816;SDS011;54614;47.576;7.524;2023-03-01T01:29:49;5.80;;;3.87;;
67816;SDS011;54614;47.576;7.524;2023-03-01T01:32:17;5.50;;;3.53;;
67816;SDS011;54614;47.576;7.524;2023-03-01T01:34:43;4.63;;;3.50;;
67816;SDS011;54614;47.576;7.524;2023-03-01T01:37:11;4.17;;;3.70;;
67816;SDS011;54614;47.576;7.524;2023-03-01T01:39:37;4.97;;;3.80;;
67816;SDS011;54614;47.576;7.524;2023-03-01T01:42:03;4.10;;;3.70;;
67816;SDS011;54614;47.576;7.524;2023-03-01T01:44:30;5.00;;;3.73;;
67816;SDS011;54614;47.576;7.524;2023-03-01T01:47:00;4.53;;;3.67;;
67816;SDS011;54614;47.576;7.524;2023-03-01T01:49:41;4.63;;;3.80;;
67816;SDS011;54614;47.576;7.524;2023-03-01T01:54:50;4.60;;;3.70;;
67816;SDS011;54614;47.576;7.524;2023-03-01T01:57:26;4.10;;;3.70;;
67816;SDS011;54614;47.576;7.524;2023-03-01T02:00:10;4.23;;;3.70;;
67816;SDS011;54614;47.576;7.524;2023-03-01T02:02:39;4.00;;;3.60;;
67816;SDS011;54614;47.576;7.524;2023-03-01T02:05:12;4.00;;;3.33;;
67816;SDS011;54614;47.576;7.524;2023-03-01T02:07:46;5.37;;;3.73;;
67816;SDS011;54614;47.576;7.524;2023-03-01T02:10:13;5.03;;;3.60;;
67816;SDS011;54614;47.576;7.524;2023-03-01T02:12:40;4.60;;;3.57;;
67816;SDS011;54614;47.576;7.524;2023-03-01T02:15:07;6.07;;;3.40;;
67816;SDS011;54614;47.576;7.524;2023-03-01T02:17:34;3.47;;;3.17;;
67816;SDS011;54614;47.576;7.524;2023-03-01T02:20:16;3.90;;;3.50;;
67816;SDS011;54614;47.576;7.524;2023-03-01T02:22:52;5.40;;;3.43;;
67816;SDS011;54614;47.576;7.524;2023-03-01T02:25:22;4.20;;;3.50;;
67816;SDS011;54614;47.576;7.524;2023-03-01T02:28:19;3.97;;;3.50;;
67816;SDS011;54614;47.576;7.524;2023-03-01T02:31:05;3.73;;;3.43;;
67816;SDS011;54614;47.576;7.524;2023-03-01T02:33:52;4.40;;;3.63;;
67816;SDS011;54614;47.576;7.524;2023-03-01T02:36:21;3.97;;;3.40;;
67816;SDS011;54614;47.576;7.524;2023-03-01T02:38:56;3.70;;;3.30;;
67816;SDS011;54614;47.576;7.524;2023-03-01T02:41:23;4.00;;;3.60;;
67816;SDS011;54614;47.576;7.524;2023-03-01T02:43:53;3.43;;;3.13;;
67816;SDS011;54614;47.576;7.524;2023-03-01T02:46:21;4.67;;;3.60;;
67816;SDS011;54614;47.576;7.524;2023-03-01T02:48:50;3.97;;;3.30;;
67816;SDS011;54614;47.576;7.524;2023-03-01T02:54:07;6.13;;;3.40;;
67816;SDS011;54614;47.576;7.524;2023-03-01T02:56:43;5.30;;;3.70;;
67816;SDS011;54614;47.576;7.524;2023-03-01T02:59:14;4.10;;;3.33;;
67816;SDS011;54614;47.576;7.524;2023-03-01T03:01:45;3.93;;;3.53;;
67816;SDS011;54614;47.576;7.524;2023-03-01T03:04:13;4.03;;;3.27;;
67816;SDS011;54614;47.576;7.524;2023-03-01T03:06:47;3.63;;;3.13;;
67816;SDS011;54614;47.576;7.524;2023-03-01T03:09:15;4.67;;;3.63;;
67816;SDS011;54614;47.576;7.524;2023-03-01T03:11:42;5.27;;;3.80;;
67816;SDS011;54614;47.576;7.524;2023-03-01T03:14:10;5.00;;;3.30;;
67816;SDS011;54614;47.576;7.524;2023-03-01T03:16:47;5.53;;;3.67;;
67816;SDS011;54614;47.576;7.524;2023-03-01T03:19:15;5.77;;;3.47;;
67816;SDS011;54614;47.576;7.524;2023-03-01T03:21:42;4.17;;;3.50;;
67816;SDS011;54614;47.576;7.524;2023-03-01T03:24:08;3.97;;;3.43;;
67816;SDS011;54614;47.576;7.524;2023-03-01T03:26:35;3.77;;;3.20;;
67816;SDS011;54614;47.576;7.524;2023-03-01T03:29:01;5.43;;;3.40;;
67816;SDS011;54614;47.576;7.524;2023-03-01T03:31:27;3.70;;;3.30;;
67816;SDS011;54614;47.576;7.524;2023-03-01T03:33:54;3.67;;;3.30;;
67816;SDS011;54614;47.576;7.524;2023-03-01T03:36:22;3.77;;;3.37;;
67816;SDS011;54614;47.576;7.524;2023-03-01T03:38:49;3.60;;;3.30;;
67816;SDS011;54614;47.576;7.524;2023-03-01T03:41:16;3.50;;;3.20;;
67816;SDS011;54614;47.576;7.524;2023-03-01T03:43:43;3.57;;;3.27;;
67816;SDS011;54614;47.576;7.524;2023-03-01T03:46:10;4.07;;;3.50;;
67816;SDS011;54614;47.576;7.524;2023-03-01T03:48:37;4.27;;;3.37;;
67816;SDS011;54614;47.576;7.524;2023-03-01T03:51:06;3.67;;;3.17;;
67816;SDS011;54614;47.576;7.524;2023-03-01T03:53:35;3.37;;;3.07;;
67816;SDS011;54614;47.576;7.524;2023-03-01T03:56:01;4.17;;;3.43;;
67816;SDS011;54614;47.576;7.524;2023-03-01T03:58:27;3.73;;;3.33;;
67816;SDS011;54614;47.576;7.524;2023-03-01T04:00:55;4.00;;;3.10;;
67816;SDS011;54614;47.576;7.524;2023-03-01T04:03:22;5.03;;;3.40;;
67816;SDS011;54614;47.576;7.524;2023-03-01T04:05:50;3.80;;;3.00;;
67816;SDS011;54614;47.576;7.524;2023-03-01T04:08:17;4.77;;;3.60;;
67816;SDS011;54614;47.576;7.524;2023-03-01T04:10:46;4.33;;;3.37;;
67816;SDS011;54614;47.576;7.524;2023-03-01T04:13:16;3.60;;;3.30;;
67816;SDS011;54614;47.576;7.524;2023-03-01T04:15:45;4.40;;;3.40;;
67816;SDS011;54614;47.576;7.524;2023-03-01T04:18:13;4.00;;;3.40;;
67816;SDS011;54614;47.576;7.524;2023-03-01T04:20:41;3.40;;;3.10;;
67816;SDS011;54614;47.576;7.524;2023-03-01T04:23:08;4.30;;;3.20;;
67816;SDS011;54614;47.576;7.524;2023-03-01T04:28:10;4.80;;;3.23;;
67816;SDS011;54614;47.576;7.524;2023-03-01T04:30:37;3.50;;;3.20;;
67816;SDS011;54614;47.576;7.524;2023-03-01T04:33:04;4.03;;;3.20;;
67816;SDS011;54614;47.576;7.524;2023-03-01T04:35:32;4.73;;;3.40;;
67816;SDS011;54614;47.576;7.524;2023-03-01T04:37:59;3.97;;;3.47;;
67816;SDS011;54614;47.576;7.524;2023-03-01T04:40:25;4.07;;;3.20;;
67816;SDS011;54614;47.576;7.524;2023-03-01T04:42:52;4.07;;;3.30;;
67816;SDS011;54614;47.576;7.524;2023-03-01T04:45:18;4.63;;;3.40;;
67816;SDS011;54614;47.576;7.524;2023-03-01T04:47:45;4.20;;;3.53;;
67816;SDS011;54614;47.576;7.524;2023-03-01T04:50:13;4.00;;;3.60;;
67816;SDS011;54614;47.576;7.524;2023-03-01T04:52:41;3.90;;;3.20;;
67816;SDS011;54614;47.576;7.524;2023-03-01T04:55:09;3.60;;;3.23;;
67816;SDS011;54614;47.576;7.524;2023-03-01T04:57:35;5.93;;;3.70;;
67816;SDS011;54614;47.576;7.524;2023-03-01T05:00:02;3.70;;;3.30;;
67816;SDS011;54614;47.576;7.524;2023-03-01T05:02:49;3.50;;;3.20;;
67816;SDS011;54614;47.576;7.524;2023-03-01T05:05:25;3.83;;;3.37;;
67816;SDS011;54614;47.576;7.524;2023-03-01T05:08:01;4.17;;;3.00;;
67816;SDS011;54614;47.576;7.524;2023-03-01T05:10:30;5.33;;;3.33;;
67816;SDS011;54614;47.576;7.524;2023-03-01T05:12:58;3.57;;;3.03;;
67816;SDS011;54614;47.576;7.524;2023-03-01T05:15:25;5.13;;;3.47;;
67816;SDS011;54614;47.576;7.524;2023-03-01T05:17:53;5.57;;;3.47;;
67816;SDS011;54614;47.576;7.524;2023-03-01T05:20:23;4.13;;;3.03;;
67816;SDS011;54614;47.576;7.524;2023-03-01T05:22:50;5.00;;;3.17;;
67816;SDS011;54614;47.576;7.524;2023-03-01T05:25:17;3.60;;;3.30;;
67816;SDS011;54614;47.576;7.524;2023-03-01T05:27:43;5.60;;;3.37;;
67816;SDS011;54614;47.576;7.524;2023-03-01T05:30:09;4.83;;;3.50;;
67816;SDS011;54614;47.576;7.524;2023-03-01T05:32:40;3.37;;;3.07;;
67816;SDS011;54614;47.576;7.524;2023-03-01T05:35:14;3.70;;;3.20;;
67816;SDS011;54614;47.576;7.524;2023-03-01T05:37:45;4.00;;;3.50;;
67816;SDS011;54614;47.576;7.524;2023-03-01T05:40:14;3.80;;;3.00;;
67816;SDS011;54614;47.576;7.524;2023-03-01T05:42:46;3.20;;;2.90;;
67816;SDS011;54614;47.576;7.524;2023-03-01T05:45:15;3.63;;;3.10;;
67816;SDS011;54614;47.576;7.524;2023-03-01T05:47:42;3.20;;;2.90;;
67816;SDS011;54614;47.576;7.524;2023-03-01T05:50:13;3.40;;;3.10;;
67816;SDS011;54614;47.576;7.524;2023-03-01T05:52:48;3.27;;;2.97;;
67816;SDS011;54614;47.576;7.524;2023-03-01T05:55:20;3.40;;;3.10;;
67816;SDS011;54614;47.576;7.524;2023-03-01T05:57:47;3.17;;;2.83;;
67816;SDS011;54614;47.576;7.524;2023-03-01T06:00:15;4.43;;;3.00;;
67816;SDS011;54614;47.576;7.524;2023-03-01T06:02:43;3.73;;;3.30;;
67816;SDS011;54614;47.576;7.524;2023-03-01T06:05:13;4.07;;;3.57;;
67816;SDS011;54614;47.576;7.524;2023-03-01T06:07:40;4.43;;;3.00;;
67816;SDS011;54614;47.576;7.524;2023-03-01T06:10:07;3.30;;;3.00;;
67816;SDS011;54614;47.576;7.524;2023-03-01T06:12:35;3.53;;;3.20;;
67816;SDS011;54614;47.576;7.524;2023-03-01T06:15:03;3.50;;;3.03;;
67816;SDS011;54614;47.576;7.524;2023-03-01T06:17:31;3.57;;;3.00;;
67816;SDS011;54614;47.576;7.524;2023-03-01T06:20:02;5.40;;;3.00;;
67816;SDS011;54614;47.576;7.524;2023-03-01T06:22:36;3.00;;;2.70;;
67816;SDS011;54614;47.576;7.524;2023-03-01T06:25:03;3.10;;;2.70;;
67816;SDS011;54614;47.576;7.524;2023-03-01T06:27:30;3.40;;;3.10;;
67816;SDS011;54614;47.576;7.524;2023-03-01T06:29:56;4.07;;;2.70;;
67816;SDS011;54614;47.576;7.524;2023-03-01T06:32:22;6.70;;;3.00;;
67816;SDS011;54614;47.576;7.524;2023-03-01T06:34:49;5.53;;;2.77;;
67816;SDS011;54614;47.576;7.524;2023-03-01T06:37:15;4.00;;;3.03;;
67816;SDS011;54614;47.576;7.524;2023-03-01T06:39:42;4.83;;;2.73;;
67816;SDS011;54614;47.576;7.524;2023-03-01T06:42:08;4.03;;;2.77;;
67816;SDS011;54614;47.576;7.524;2023-03-01T06:44:35;4.93;;;2.80;;
67816;SDS011;54614;47.576;7.524;2023-03-01T06:47:01;8.33;;;2.67;;
67816;SDS011;54614;47.576;7.524;2023-03-01T06:49:28;7.83;;;3.10;;
67816;SDS011;54614;47.576;7.524;2023-03-01T06:51:55;4.00;;;2.97;;
67816;SDS011;54614;47.576;7.524;2023-03-01T06:54:21;7.80;;;3.13;;
67816;SDS011;54614;47.576;7.524;2023-03-01T06:56:48;6.93;;;2.80;;
67816;SDS011;54614;47.576;7.524;2023-03-01T06:59:15;4.87;;;2.93;;
67816;SDS011;54614;47.576;7.524;2023-03-01T07:01:42;4.07;;;2.90;;
67816;SDS011;54614;47.576;7.524;2023-03-01T07:04:09;4.70;;;3.20;;
67816;SDS011;54614;47.576;7.524;2023-03-01T07:06:36;6.70;;;2.80;;
67816;SDS011;54614;47.576;7.524;2023-03-01T07:09:02;4.60;;;2.90;;
67816;SDS011;54614;47.576;7.524;2023-03-01T07:11:28;4.17;;;2.80;;
67816;SDS011;54614;47.576;7.524;2023-03-01T07:13:54;6.97;;;3.10;;
67816;SDS011;54614;47.576;7.524;2023-03-01T07:16:21;3.20;;;2.90;;
67816;SDS011;54614;47.576;7.524;2023-03-01T07:18:47;3.97;;;2.80;;
67816;SDS011;54614;47.576;7.524;2023-03-01T07:21:14;4.87;;;3.00;;
67816;SDS011;54614;47.576;7.524;2023-03-01T07:23:41;4.27;;;3.10;;
67816;SDS011;54614;47.576;7.524;2023-03-01T07:26:07;3.37;;;3.00;;
67816;SDS011;54614;47.576;7.524;2023-03-01T07:28:34;3.50;;;2.77;;
67816;SDS011;54614;47.576;7.524;2023-03-01T07:31:03;4.93;;;2.90;;
67816;SDS011;54614;47.576;7.524;2023-03-01T07:33:30;8.07;;;3.07;;
67816;SDS011;54614;47.576;7.524;2023-03-01T07:35:59;3.33;;;2.93;;
67816;SDS011;54614;47.576;7.524;2023-03-01T07:38:27;4.33;;;2.80;;
67816;SDS011;54614;47.576;7.524;2023-03-01T07:40:57;5.20;;;3.00;;
67816;SDS011;54614;47.576;7.524;2023-03-01T07:43:25;4.43;;;2.90;;
67816;SDS011;54614;47.576;7.524;2023-03-01T07:45:52;4.73;;;2.97;;
67816;SDS011;54614;47.576;7.524;2023-03-01T07:48:18;3.63;;;3.07;;
67816;SDS011;54614;47.576;7.524;2023-03-01T07:50:45;4.03;;;2.77;;
67816;SDS011;54614;47.576;7.524;2023-03-01T07:53:11;3.30;;;3.00;;
67816;SDS011;54614;47.576;7.524;2023-03-01T07:55:37;5.53;;;3.03;;
67816;SDS011;54614;47.576;7.524;2023-03-01T07:58:03;5.67;;;3.40;;
67816;SDS011;54614;47.576;7.524;2023-03-01T08:00:29;7.03;;;3.30;;
67816;SDS011;54614;47.576;7.524;2023-03-01T08:02:58;5.13;;;3.43;;
67816;SDS011;54614;47.576;7.524;2023-03-01T08:05:25;5.50;;;3.40;;
67816;SDS011;54614;47.576;7.524;2023-03-01T08:07:52;3.93;;;3.13;;
67816;SDS011;54614;47.576;7.524;2023-03-01T08:10:18;4.20;;;3.47;;
67816;SDS011;54614;47.576;7.524;2023-03-01T08:12:45;10.50;;;4.17;;
67816;SDS011;54614;47.576;7.524;2023-03-01T08:15:11;17.47;;;4.33;;
67816;SDS011;54614;47.576;7.524;2023-03-01T08:17:37;12.40;;;4.07;;
67816;SDS011;54614;47.576;7.524;2023-03-01T08:20:04;10.73;;;3.73;;
67816;SDS011;54614;47.576;7.524;2023-03-01T08:22:32;10.27;;;3.67;;
67816;SDS011;54614;47.576;7.524;2023-03-01T08:24:58;7.73;;;3.47;;
67816;SDS011;54614;47.576;7.524;2023-03-01T08:27:24;4.27;;;3.20;;
67816;SDS011;54614;47.576;7.524;2023-03-01T08:29:50;4.10;;;3.20;;
67816;SDS011;54614;47.576;7.524;2023-03-01T08:32:17;6.60;;;3.60;;
67816;SDS011;54614;47.576;7.524;2023-03-01T08:34:45;3.10;;;2.80;;
67816;SDS011;54614;47.576;7.524;2023-03-01T08:37:12;6.77;;;3.57;;
67816;SDS011;54614;47.576;7.524;2023-03-01T08:39:38;5.00;;;3.43;;
67816;SDS011;54614;47.576;7.524;2023-03-01T08:42:04;4.73;;;3.00;;
67816;SDS011;54614;47.576;7.524;2023-03-01T08:44:31;8.20;;;3.20;;
67816;SDS011;54614;47.576;7.524;2023-03-01T08:46:57;5.67;;;2.93;;
67816;SDS011;54614;47.576;7.524;2023-03-01T08:49:23;5.87;;;3.10;;
67816;SDS011;54614;47.576;7.524;2023-03-01T08:51:49;6.00;;;3.10;;
67816;SDS011;54614;47.576;7.524;2023-03-01T08:54:17;5.87;;;3.23;;
67816;SDS011;54614;47.576;7.524;2023-03-01T08:56:45;5.50;;;3.10;;
67816;SDS011;54614;47.576;7.524;2023-03-01T08:59:11;6.17;;;3.00;;
67816;SDS011;54614;47.576;7.524;2023-03-01T09:01:39;3.40;;;3.00;;
67816;SDS011;54614;47.576;7.524;2023-03-01T09:04:08;4.77;;;2.90;;
67816;SDS011;54614;47.576;7.524;2023-03-01T09:06:35;7.77;;;3.20;;
67816;SDS011;54614;47.576;7.524;2023-03-01T09:09:01;5.63;;;3.07;;
67816;SDS011;54614;47.576;7.524;2023-03-01T09:11:29;3.93;;;3.30;;
67816;SDS011;54614;47.576;7.524;2023-03-01T09:13:55;4.97;;;3.10;;
67816;SDS011;54614;47.576;7.524;2023-03-01T09:16:22;3.27;;;2.97;;
67816;SDS011;54614;47.576;7.524;2023-03-01T09:18:50;8.07;;;3.33;;
67816;SDS011;54614;47.576;7.524;2023-03-01T09:21:18;4.63;;;3.00;;
67816;SDS011;54614;47.576;7.524;2023-03-01T09:23:46;6.40;;;2.90;;
67816;SDS011;54614;47.576;7.524;2023-03-01T09:26:14;7.77;;;3.43;;
67816;SDS011;54614;47.576;7.524;2023-03-01T09:28:44;7.53;;;3.27;;
67816;SDS011;54614;47.576;7.524;2023-03-01T09:31:11;7.27;;;3.30;;
67816;SDS011;54614;47.576;7.524;2023-03-01T09:33:39;6.00;;;3.10;;
67816;SDS011;54614;47.576;7.524;2023-03-01T09:36:07;5.43;;;3.10;;
67816;SDS011;54614;47.576;7.524;2023-03-01T09:38:41;6.23;;;3.17;;
67816;SDS011;54614;47.576;7.524;2023-03-01T09:41:31;6.73;;;3.30;;
67816;SDS011;54614;47.576;7.524;2023-03-01T09:45:20;6.97;;;3.50;;
67816;SDS011;54614;47.576;7.524;2023-03-01T09:47:21;8.27;;;3.20;;
67816;SDS011;54614;47.576;7.524;2023-03-01T09:49:58;4.83;;;3.07;;
67816;SDS011;54614;47.576;7.524;2023-03-01T09:54:57;5.10;;;3.30;;
67816;SDS011;54614;47.576;7.524;2023-03-01T10:00:01;5.30;;;3.40;;
67816;SDS011;54614;47.576;7.524;2023-03-01T10:02:59;4.50;;;3.40;;
67816;SDS011;54614;47.576;7.524;2023-03-01T10:05:59;5.57;;;3.37;;
67816;SDS011;54614;47.576;7.524;2023-03-01T10:11:04;6.67;;;3.10;;
67816;SDS011;54614;47.576;7.524;2023-03-01T10:16:40;3.63;;;2.90;;
67816;SDS011;54614;47.576;7.524;2023-03-01T10:19:49;8.10;;;3.57;;
67816;SDS011;54614;47.576;7.524;2023-03-01T10:22:14;5.33;;;3.17;;
67816;SDS011;54614;47.576;7.524;2023-03-01T10:24:46;6.10;;;3.30;;
67816;SDS011;54614;47.576;7.524;2023-03-01T10:30:05;7.20;;;3.10;;
67816;SDS011;54614;47.576;7.524;2023-03-01T10:32:41;4.17;;;3.20;;
67816;SDS011;54614;47.576;7.524;2023-03-01T10:35:15;3.90;;;3.10;;
67816;SDS011;54614;47.576;7.524;2023-03-01T10:37:56;6.57;;;3.17;;
67816;SDS011;54614;47.576;7.524;2023-03-01T10:40:36;5.43;;;3.10;;
67816;SDS011;54614;47.576;7.524;2023-03-01T10:43:15;7.43;;;4.80;;
67816;SDS011;54614;47.576;7.524;2023-03-01T10:45:41;14.10;;;5.80;;
67816;SDS011;54614;47.576;7.524;2023-03-01T10:50:43;15.13;;;5.57;;
67816;SDS011;54614;47.576;7.524;2023-03-01T10:58:23;14.67;;;5.63;;
67816;SDS011;54614;47.576;7.524;2023-03-01T11:00:54;16.80;;;5.80;;
67816;SDS011;54614;47.576;7.524;2023-03-01T11:03:26;15.43;;;5.90;;
67816;SDS011;54614;47.576;7.524;2023-03-01T11:05:59;13.90;;;5.90;;
67816;SDS011;54614;47.576;7.524;2023-03-01T11:08:33;12.23;;;5.30;;
67816;SDS011;54614;47.576;7.524;2023-03-01T11:11:21;10.93;;;5.80;;
67816;SDS011;54614;47.576;7.524;2023-03-01T11:14:00;14.77;;;6.30;;
67816;SDS011;54614;47.576;7.524;2023-03-01T11:16:36;12.00;;;5.83;;
67816;SDS011;54614;47.576;7.524;2023-03-01T11:24:29;21.57;;;5.70;;
67816;SDS011;54614;47.576;7.524;2023-03-01T11:27:04;13.57;;;6.07;;
67816;SDS011;54614;47.576;7.524;2023-03-01T11:29:46;11.40;;;5.33;;
67816;SDS011;54614;47.576;7.524;2023-03-01T11:35:21;11.77;;;5.40;;
67816;SDS011;54614;47.576;7.524;2023-03-01T11:40:52;12.27;;;5.50;;
67816;SDS011;54614;47.576;7.524;2023-03-01T11:43:20;12.60;;;5.33;;
67816;SDS011;54614;47.576;7.524;2023-03-01T11:48:47;10.37;;;5.10;;
67816;SDS011;54614;47.576;7.524;2023-03-01T12:08:23;8.07;;;4.60;;
67816;SDS011;54614;47.576;7.524;2023-03-01T12:10:58;8.63;;;4.50;;
67816;SDS011;54614;47.576;7.524;2023-03-01T12:27:33;10.13;;;4.40;;
67816;SDS011;54614;47.576;7.524;2023-03-01T12:30:09;9.73;;;4.27;;
67816;SDS011;54614;47.576;7.524;2023-03-01T12:33:06;10.20;;;4.47;;
67816;SDS011;54614;47.576;7.524;2023-03-01T12:38:41;9.57;;;4.20;;
67816;SDS011;54614;47.576;7.524;2023-03-01T12:54:54;7.80;;;4.67;;
67816;SDS011;54614;47.576;7.524;2023-03-01T13:02:55;8.60;;;4.43;;
67816;SDS011;54614;47.576;7.524;2023-03-01T13:08:10;6.90;;;4.17;;
67816;SDS011;54614;47.576;7.524;2023-03-01T13:10:45;8.90;;;4.20;;
67816;SDS011;54614;47.576;7.524;2023-03-01T13:13:18;9.75;;;4.03;;
67816;SDS011;54614;47.576;7.524;2023-03-01T13:15:46;12.93;;;4.23;;
67816;SDS011;54614;47.576;7.524;2023-03-01T13:20:48;8.07;;;4.28;;
67816;SDS011;54614;47.576;7.524;2023-03-01T13:31:08;9.07;;;4.10;;
67816;SDS011;54614;47.576;7.524;2023-03-01T13:46:45;8.27;;;4.10;;
67816;SDS011;54614;47.576;7.524;2023-03-01T13:49:13;5.88;;;3.95;;
67816;SDS011;54614;47.576;7.524;2023-03-01T13:51:42;6.63;;;4.05;;
67816;SDS011;54614;47.576;7.524;2023-03-01T13:54:34;11.77;;;4.10;;
67816;SDS011;54614;47.576;7.524;2023-03-01T13:57:00;8.33;;;3.90;;
67816;SDS011;54614;47.576;7.524;2023-03-01T13:59:27;6.97;;;4.03;;
67816;SDS011;54614;47.576;7.524;2023-03-01T14:01:56;10.03;;;4.17;;
67816;SDS011;54614;47.576;7.524;2023-03-01T14:04:25;8.63;;;4.10;;
67816;SDS011;54614;47.576;7.524;2023-03-01T14:07:09;5.63;;;4.03;;
67816;SDS011;54614;47.576;7.524;2023-03-01T14:09:37;8.03;;;3.70;;
67816;SDS011;54614;47.576;7.524;2023-03-01T14:19:57;8.20;;;4.00;;
67816;SDS011;54614;47.576;7.524;2023-03-01T14:22:34;7.40;;;4.13;;
67816;SDS011;54614;47.576;7.524;2023-03-01T14:25:03;6.23;;;3.93;;
67816;SDS011;54614;47.576;7.524;2023-03-01T14:27:54;5.67;;;4.10;;
67816;SDS011;54614;47.576;7.524;2023-03-01T14:30:26;5.83;;;4.20;;
67816;SDS011;54614;47.576;7.524;2023-03-01T14:32:57;8.30;;;3.80;;
67816;SDS011;54614;47.576;7.524;2023-03-01T14:35:29;7.63;;;3.80;;
67816;SDS011;54614;47.576;7.524;2023-03-01T14:37:57;5.33;;;3.87;;
67816;SDS011;54614;47.576;7.524;2023-03-01T14:40:25;6.17;;;3.83;;
67816;SDS011;54614;47.576;7.524;2023-03-01T14:42:53;6.90;;;3.57;;
67816;SDS011;54614;47.576;7.524;2023-03-01T14:45:23;8.17;;;3.80;;
67816;SDS011;54614;47.576;7.524;2023-03-01T14:47:52;4.87;;;3.70;;
67816;SDS011;54614;47.576;7.524;2023-03-01T14:52:52;6.10;;;3.80;;
67816;SDS011;54614;47.576;7.524;2023-03-01T14:55:29;7.37;;;3.70;;
67816;SDS011;54614;47.576;7.524;2023-03-01T14:58:11;7.67;;;3.80;;
67816;SDS011;54614;47.576;7.524;2023-03-01T15:00:39;5.77;;;4.03;;
67816;SDS011;54614;47.576;7.524;2023-03-01T15:06:02;5.27;;;3.80;;
67816;SDS011;54614;47.576;7.524;2023-03-01T15:08:30;4.57;;;3.47;;
67816;SDS011;54614;47.576;7.524;2023-03-01T15:13:33;4.80;;;3.60;;
67816;SDS011;54614;47.576;7.524;2023-03-01T15:16:04;8.13;;;3.37;;
67816;SDS011;54614;47.576;7.524;2023-03-01T15:18:43;6.07;;;3.50;;
67816;SDS011;54614;47.576;7.524;2023-03-01T15:21:16;5.97;;;3.40;;
67816;SDS011;54614;47.576;7.524;2023-03-01T15:23:54;7.77;;;3.70;;
67816;SDS011;54614;47.576;7.524;2023-03-01T15:26:28;6.60;;;3.60;;
67816;SDS011;54614;47.576;7.524;2023-03-01T15:28:57;5.67;;;3.90;;
67816;SDS011;54614;47.576;7.524;2023-03-01T15:31:26;4.90;;;3.73;;
67816;SDS011;54614;47.576;7.524;2023-03-01T15:34:10;8.53;;;3.80;;
67816;SDS011;54614;47.576;7.524;2023-03-01T15:36:54;5.37;;;4.27;;
67816;SDS011;54614;47.576;7.524;2023-03-01T15:42:17;6.73;;;3.80;;
67816;SDS011;54614;47.576;7.524;2023-03-01T15:47:55;5.77;;;3.90;;
67816;SDS011;54614;47.576;7.524;2023-03-01T15:52:54;9.07;;;4.10;;
67816;SDS011;54614;47.576;7.524;2023-03-01T15:58:01;6.73;;;3.93;;
67816;SDS011;54614;47.576;7.524;2023-03-01T16:00:31;6.90;;;3.90;;
67816;SDS011;54614;47.576;7.524;2023-03-01T16:02:58;9.73;;;4.23;;
67816;SDS011;54614;47.576;7.524;2023-03-01T16:05:26;7.13;;;3.90;;
67816;SDS011;54614;47.576;7.524;2023-03-01T16:07:59;8.13;;;4.20;;
67816;SDS011;54614;47.576;7.524;2023-03-01T16:10:25;9.60;;;3.63;;
67816;SDS011;54614;47.576;7.524;2023-03-01T16:12:52;6.47;;;4.00;;
67816;SDS011;54614;47.576;7.524;2023-03-01T16:17:53;9.47;;;4.00;;
67816;SDS011;54614;47.576;7.524;2023-03-01T16:20:20;12.20;;;3.87;;
67816;SDS011;54614;47.576;7.524;2023-03-01T16:22:47;9.77;;;3.80;;
67816;SDS011;54614;47.576;7.524;2023-03-01T16:25:14;8.47;;;3.87;;
67816;SDS011;54614;47.576;7.524;2023-03-01T16:27:43;11.03;;;3.80;;
67816;SDS011;54614;47.576;7.524;2023-03-01T16:30:15;6.70;;;3.77;;
67816;SDS011;54614;47.576;7.524;2023-03-01T16:32:44;6.50;;;3.60;;
67816;SDS011;54614;47.576;7.524;2023-03-01T16:35:12;6.33;;;3.80;;
67816;SDS011;54614;47.576;7.524;2023-03-01T16:37:40;13.03;;;4.10;;
67816;SDS011;54614;47.576;7.524;2023-03-01T16:40:15;10.17;;;3.90;;
67816;SDS011;54614;47.576;7.524;2023-03-01T16:42:52;5.13;;;3.80;;
67816;SDS011;54614;47.576;7.524;2023-03-01T16:45:20;11.43;;;3.90;;
67816;SDS011;54614;47.576;7.524;2023-03-01T16:47:46;6.53;;;4.37;;
67816;SDS011;54614;47.576;7.524;2023-03-01T16:50:12;6.17;;;3.87;;
67816;SDS011;54614;47.576;7.524;2023-03-01T16:52:38;6.50;;;3.77;;
67816;SDS011;54614;47.576;7.524;2023-03-01T16:55:05;10.00;;;4.00;;
67816;SDS011;54614;47.576;7.524;2023-03-01T16:57:34;8.57;;;3.90;;
67816;SDS011;54614;47.576;7.524;2023-03-01T17:00:05;6.43;;;3.70;;
67816;SDS011;54614;47.576;7.524;2023-03-01T17:02:34;6.10;;;3.97;;
67816;SDS011;54614;47.576;7.524;2023-03-01T17:05:01;10.23;;;4.00;;
67816;SDS011;54614;47.576;7.524;2023-03-01T17:07:29;7.87;;;3.83;;
67816;SDS011;54614;47.576;7.524;2023-03-01T17:09:58;6.60;;;3.90;;
67816;SDS011;54614;47.576;7.524;2023-03-01T17:12:25;7.03;;;4.13;;
67816;SDS011;54614;47.576;7.524;2023-03-01T17:14:52;7.70;;;3.70;;
67816;SDS011;54614;47.576;7.524;2023-03-01T17:17:18;10.00;;;3.87;;
67816;SDS011;54614;47.576;7.524;2023-03-01T17:19:45;11.27;;;4.03;;
67816;SDS011;54614;47.576;7.524;2023-03-01T17:22:11;4.70;;;3.67;;
67816;SDS011;54614;47.576;7.524;2023-03-01T17:24:42;8.20;;;3.67;;
67816;SDS011;54614;47.576;7.524;2023-03-01T17:27:08;5.70;;;3.45;;
67816;SDS011;54614;47.576;7.524;2023-03-01T17:29:36;5.80;;;3.97;;
67816;SDS011;54614;47.576;7.524;2023-03-01T17:32:04;8.15;;;3.10;;
67816;SDS011;54614;47.576;7.524;2023-03-01T17:34:31;9.23;;;3.87;;